Terminal Aerodrome Forecast
Issued by NWS

Home | Current Version | Previous Version | Graphics & Text | Print | Product List | Glossary On
Versions: 1 2 3 4 5 6 7 8 9 10 11 12 13 14 15 16 17 18 19 20 21 22 23 24 25 26 27
129
FTUS43 KABR 222323
TAFATY
TAF
KATY 222323Z 2300/2324 15016G23KT P6SM OVC050
     FM230400 17014KT P6SM SCT200
     FM231600 15010KT P6SM OVC008
      TEMPO 2320/2324 -DZ=

USA.gov is the U.S. government's official web portal to all federal, state and local government web resources and services.